createdAt,value
2017-11-16T00:01:50.102Z,93.87
2017-11-16T00:04:18.359Z,93.79
2017-11-16T00:06:46.621Z,93.75
2017-11-16T00:09:15.649Z,93.69
2017-11-16T00:11:43.914Z,93.62
2017-11-16T00:14:12.184Z,93.58
2017-11-16T00:16:40.443Z,93.57
2017-11-16T00:19:09.479Z,93.44
2017-11-16T00:21:37.753Z,93.41
2017-11-16T00:24:06.034Z,93.37
2017-11-16T00:26:34.289Z,93.34
2017-11-16T00:29:02.582Z,93.25
2017-11-16T00:31:31.581Z,93.19
2017-11-16T00:34:00.607Z,93.18
2017-11-16T00:36:28.867Z,93.15
2017-11-16T00:38:57.128Z,93.15
2017-11-16T00:41:25.409Z,93.20
2017-11-16T00:43:53.671Z,93.32
2017-11-16T00:46:21.941Z,93.37
2017-11-16T00:48:50.201Z,93.35
2017-11-16T00:51:18.480Z,93.47
2017-11-16T00:53:46.768Z,93.47
2017-11-16T00:56:15.023Z,93.51
2017-11-16T00:58:43.284Z,93.55
2017-11-16T01:01:12.318Z,93.60
2017-11-16T01:03:40.591Z,93.63
2017-11-16T01:06:08.860Z,93.75
2017-11-16T01:08:37.142Z,93.73
2017-11-16T01:11:05.414Z,93.65
2017-11-16T01:13:33.690Z,93.59
2017-11-16T01:16:01.937Z,93.55
2017-11-16T01:18:30.996Z,93.44
2017-11-16T01:20:59.247Z,93.34
2017-11-16T01:23:27.517Z,93.27
2017-11-16T01:25:55.780Z,93.22
2017-11-16T01:28:24.029Z,93.17
2017-11-16T01:30:53.053Z,93.02
2017-11-16T01:33:21.329Z,92.98
2017-11-16T01:35:49.592Z,92.81
2017-11-16T01:38:17.858Z,92.57
2017-11-16T01:40:46.118Z,92.55
2017-11-16T01:43:15.134Z,92.42
2017-11-16T01:45:43.386Z,92.35
2017-11-16T01:48:12.418Z,92.39
2017-11-16T01:50:40.690Z,92.43
2017-11-16T01:53:08.940Z,92.32
2017-11-16T01:55:38.007Z,92.35
2017-11-16T01:58:06.264Z,92.37
2017-11-16T02:00:34.525Z,92.34
2017-11-16T02:03:02.808Z,92.42
2017-11-16T02:05:31.082Z,92.50
2017-11-16T02:07:59.366Z,92.46
2017-11-16T02:10:27.621Z,92.45
2017-11-16T02:12:55.878Z,92.48
2017-11-16T02:15:24.136Z,92.52
2017-11-16T02:17:53.165Z,92.49
2017-11-16T02:20:21.418Z,92.52
2017-11-16T02:22:49.706Z,92.61
2017-11-16T02:25:17.974Z,92.77
2017-11-16T02:27:46.283Z,92.75
2017-11-16T02:30:14.548Z,92.70
2017-11-16T02:32:42.814Z,92.80
2017-11-16T02:35:11.103Z,92.75
2017-11-16T02:37:39.353Z,92.78
2017-11-16T02:40:07.637Z,93.05
2017-11-16T02:42:35.897Z,93.19
2017-11-16T02:45:04.925Z,93.16
2017-11-16T02:47:33.180Z,93.23
2017-11-16T02:50:01.451Z,93.23
2017-11-16T02:52:29.748Z,93.15
2017-11-16T02:54:58.023Z,93.16
2017-11-16T02:57:26.283Z,93.19
2017-11-16T02:59:54.744Z,93.19
2017-11-16T03:02:23.025Z,93.15
2017-11-16T03:04:51.294Z,93.22
2017-11-16T03:07:20.331Z,93.22
2017-11-16T03:09:48.604Z,93.20
2017-11-16T03:12:16.880Z,93.20
2017-11-16T03:14:45.154Z,93.21
2017-11-16T03:17:13.411Z,93.25
2017-11-16T03:19:41.672Z,93.25
2017-11-16T03:22:10.691Z,93.32
2017-11-16T03:24:38.972Z,93.32
2017-11-16T03:27:07.250Z,93.34
2017-11-16T03:29:35.536Z,93.23
2017-11-16T03:32:04.574Z,93.34
2017-11-16T03:34:33.619Z,93.34
2017-11-16T03:37:01.905Z,93.35
2017-11-16T03:39:30.159Z,93.37
2017-11-16T03:41:58.433Z,93.34
2017-11-16T03:44:26.700Z,93.40
2017-11-16T03:46:54.961Z,93.41
2017-11-16T03:49:24.004Z,93.39
2017-11-16T03:51:53.051Z,93.27
2017-11-16T03:54:21.315Z,93.14
2017-11-16T03:56:50.355Z,92.96
2017-11-16T03:59:18.615Z,92.91
2017-11-16T04:01:46.906Z,92.89
2017-11-16T04:04:15.169Z,92.88
2017-11-16T04:06:43.458Z,92.84
2017-11-16T04:09:11.717Z,92.80
2017-11-16T04:11:39.999Z,92.68
2017-11-16T04:14:08.257Z,92.79
2017-11-16T04:16:36.517Z,92.96
2017-11-16T04:19:05.545Z,92.94
2017-11-16T04:21:33.819Z,92.82
2017-11-16T04:24:02.085Z,92.74
2017-11-16T04:26:30.343Z,92.74
2017-11-16T04:28:59.396Z,92.61
2017-11-16T04:31:27.667Z,92.42
2017-11-16T04:33:55.953Z,92.52
2017-11-16T04:36:24.232Z,92.67
2017-11-16T04:38:52.496Z,92.61
2017-11-16T04:41:20.755Z,92.77
2017-11-16T04:43:49.042Z,92.91
2017-11-16T04:46:17.316Z,93.02
2017-11-16T04:48:45.567Z,93.06
2017-11-16T04:51:13.828Z,92.92
2017-11-16T04:53:42.105Z,93.02
2017-11-16T04:56:10.384Z,93.02
2017-11-16T04:58:38.648Z,93.01
2017-11-16T05:01:06.929Z,93.06
2017-11-16T05:03:35.204Z,93.03
2017-11-16T05:06:03.468Z,92.96
2017-11-16T05:08:31.732Z,92.82
2017-11-16T05:11:00.031Z,92.77
2017-11-16T05:13:29.059Z,92.64
2017-11-16T05:15:57.324Z,92.57
2017-11-16T05:18:25.591Z,92.25
2017-11-16T05:20:53.859Z,92.17
2017-11-16T05:23:22.151Z,92.36
2017-11-16T05:25:50.415Z,92.37
2017-11-16T05:28:18.689Z,92.30
2017-11-16T05:30:46.940Z,92.33
2017-11-16T05:33:15.989Z,92.16
2017-11-16T05:35:44.249Z,92.01
2017-11-16T05:38:12.528Z,91.94
2017-11-16T05:40:40.798Z,91.73
2017-11-16T05:43:09.102Z,92.03
2017-11-16T05:45:37.361Z,92.02
2017-11-16T05:48:05.636Z,92.08
2017-11-16T05:50:33.908Z,92.14
2017-11-16T05:53:02.187Z,92.34
2017-11-16T05:55:30.453Z,92.28
2017-11-16T05:57:58.716Z,92.36
2017-11-16T06:00:26.987Z,92.55
2017-11-16T06:02:55.245Z,92.51
2017-11-16T06:05:24.281Z,92.57
2017-11-16T06:07:52.541Z,92.57
2017-11-16T06:10:20.813Z,92.55
2017-11-16T06:12:49.079Z,92.36
2017-11-16T06:15:17.370Z,92.27
2017-11-16T06:17:45.631Z,92.26
2017-11-16T06:20:13.897Z,92.07
2017-11-16T06:22:42.920Z,92.04
2017-11-16T06:25:11.217Z,92.09
2017-11-16T06:27:39.493Z,92.11
2017-11-16T06:30:07.765Z,92.27
2017-11-16T06:32:36.044Z,92.16
2017-11-16T06:35:04.345Z,92.12
2017-11-16T06:37:32.617Z,92.07
2017-11-16T06:40:00.896Z,92.07
2017-11-16T06:42:29.162Z,91.94
2017-11-16T06:44:57.453Z,91.78
2017-11-16T06:47:25.728Z,91.77
2017-11-16T06:49:54.000Z,91.97
2017-11-16T06:52:22.263Z,91.93
2017-11-16T06:54:50.538Z,91.87
2017-11-16T06:57:18.792Z,91.94
2017-11-16T06:59:47.073Z,91.77
2017-11-16T07:02:15.333Z,91.79
2017-11-16T07:04:43.586Z,91.54
2017-11-16T07:07:11.993Z,91.31
2017-11-16T07:09:40.250Z,91.33
2017-11-16T07:12:08.532Z,90.96
2017-11-16T07:14:36.783Z,90.64
2017-11-16T07:17:05.804Z,90.35
2017-11-16T07:19:34.055Z,90.07
2017-11-16T07:22:03.128Z,90.06
2017-11-16T07:24:31.388Z,89.63
2017-11-16T07:26:59.641Z,89.61
2017-11-16T07:29:28.004Z,89.63
2017-11-16T07:31:56.269Z,89.93
2017-11-16T07:34:24.534Z,89.83
2017-11-16T07:36:53.575Z,89.58
2017-11-16T07:39:21.853Z,89.28
2017-11-16T07:41:50.132Z,89.13
2017-11-16T07:44:18.374Z,88.98
2017-11-16T07:46:46.644Z,88.91
2017-11-16T07:49:14.901Z,88.84
2017-11-16T07:51:43.933Z,88.62
2017-11-16T07:54:12.204Z,88.61
2017-11-16T07:56:40.464Z,89.15
2017-11-16T07:59:08.718Z,89.06
2017-11-16T08:01:37.752Z,89.11
2017-11-16T08:04:06.010Z,89.21
2017-11-16T08:06:34.282Z,89.27
2017-11-16T08:09:02.558Z,89.38
2017-11-16T08:11:30.816Z,89.56
2017-11-16T08:13:59.851Z,89.14
2017-11-16T08:16:28.115Z,89.33
2017-11-16T08:18:56.371Z,89.40
2017-11-16T08:21:24.628Z,89.42
2017-11-16T08:23:53.758Z,89.25
2017-11-16T08:26:22.022Z,89.21
2017-11-16T08:28:50.271Z,89.13
2017-11-16T08:31:19.304Z,88.84
2017-11-16T08:33:47.562Z,88.77
2017-11-16T08:36:16.575Z,88.97
2017-11-16T08:38:44.820Z,88.89
2017-11-16T08:41:13.078Z,88.92
2017-11-16T08:43:41.319Z,88.34
2017-11-16T08:46:09.567Z,88.55
2017-11-16T08:48:37.816Z,88.64
2017-11-16T08:51:06.828Z,88.60
2017-11-16T08:53:35.081Z,88.63
2017-11-16T08:56:03.314Z,88.62
2017-11-16T08:58:31.563Z,88.77
2017-11-16T09:00:59.828Z,89.00
2017-11-16T09:03:28.081Z,88.80
2017-11-16T09:05:57.093Z,88.88
2017-11-16T09:08:25.349Z,88.92
2017-11-16T09:10:54.368Z,89.24
2017-11-16T09:13:22.613Z,89.16
2017-11-16T09:15:51.630Z,89.73
2017-11-16T09:18:19.873Z,89.35
2017-11-16T09:20:48.119Z,89.32
2017-11-16T09:23:16.366Z,88.81
2017-11-16T09:25:44.608Z,89.15
2017-11-16T09:28:13.655Z,89.19
2017-11-16T09:30:41.924Z,89.31
2017-11-16T09:33:10.172Z,89.13
2017-11-16T09:35:38.436Z,89.03
2017-11-16T09:38:07.449Z,88.51
2017-11-16T09:40:35.694Z,88.19
2017-11-16T09:43:03.944Z,88.21
2017-11-16T09:45:32.188Z,88.82
2017-11-16T09:48:00.439Z,88.74
2017-11-16T09:50:29.446Z,89.11
2017-11-16T09:52:57.691Z,88.99
2017-11-16T09:55:26.703Z,88.92
2017-11-16T09:57:54.952Z,89.29
2017-11-16T10:00:24.698Z,89.05
2017-11-16T10:02:52.954Z,89.35
2017-11-16T10:05:21.970Z,89.05
2017-11-16T10:07:50.230Z,88.56
2017-11-16T10:10:18.480Z,88.63
2017-11-16T10:12:46.721Z,88.56
2017-11-16T10:15:14.982Z,88.53
2017-11-16T10:17:43.221Z,88.82
2017-11-16T10:20:12.232Z,88.30
2017-11-16T10:22:40.487Z,88.67
2017-11-16T10:25:09.503Z,88.60
2017-11-16T10:27:37.745Z,88.87
2017-11-16T10:30:06.054Z,88.70
2017-11-16T10:32:34.306Z,88.14
2017-11-16T10:35:03.319Z,88.12
2017-11-16T10:37:31.562Z,87.48
2017-11-16T10:39:59.807Z,87.41
2017-11-16T10:42:28.059Z,88.27
2017-11-16T10:44:56.311Z,87.67
2017-11-16T10:47:25.322Z,88.08
2017-11-16T10:49:53.825Z,87.63
2017-11-16T10:52:22.054Z,87.39
2017-11-16T10:54:51.084Z,87.86
2017-11-16T10:57:19.323Z,87.25
2017-11-16T10:59:48.338Z,87.45
2017-11-16T11:02:16.586Z,87.34
2017-11-16T11:04:45.601Z,87.44
2017-11-16T11:07:13.844Z,87.66
2017-11-16T11:09:42.092Z,87.96
2017-11-16T11:12:10.342Z,87.81
2017-11-16T11:14:38.582Z,87.35
2017-11-16T11:17:07.598Z,86.74
2017-11-16T11:19:35.867Z,86.92
2017-11-16T11:22:04.115Z,87.21
2017-11-16T11:24:32.355Z,87.41
2017-11-16T11:27:00.607Z,87.09
2017-11-16T11:29:28.847Z,87.22
2017-11-16T11:31:57.860Z,87.77
2017-11-16T11:34:26.867Z,86.90
2017-11-16T11:36:55.125Z,87.05
2017-11-16T11:39:24.134Z,86.98
2017-11-16T11:41:52.375Z,86.34
2017-11-16T11:44:21.386Z,87.37
2017-11-16T11:46:49.630Z,86.16
2017-11-16T11:49:17.872Z,86.37
2017-11-16T11:51:46.929Z,85.99
2017-11-16T11:54:15.938Z,86.38
2017-11-16T11:56:44.191Z,86.36
2017-11-16T11:59:13.196Z,86.80
2017-11-16T12:01:41.450Z,88.32
2017-11-16T12:04:10.466Z,87.95
2017-11-16T12:06:39.476Z,87.68
2017-11-16T12:09:07.719Z,87.93
2017-11-16T12:11:36.727Z,87.65
2017-11-16T12:14:04.967Z,87.86
2017-11-16T12:16:33.216Z,88.86
2017-11-16T12:19:02.222Z,88.75
2017-11-16T12:21:30.474Z,88.89
2017-11-16T12:23:58.718Z,88.37
2017-11-16T12:26:26.979Z,88.74
2017-11-16T12:28:55.288Z,89.20
2017-11-16T12:31:23.533Z,89.06
2017-11-16T12:33:52.540Z,89.01
2017-11-16T12:36:21.553Z,89.37
2017-11-16T12:38:49.795Z,89.65
2017-11-16T12:41:18.811Z,89.43
2017-11-16T12:43:47.063Z,89.03
2017-11-16T12:46:15.301Z,88.45
2017-11-16T12:48:44.338Z,89.38
2017-11-16T12:51:12.570Z,89.79
2017-11-16T12:53:40.818Z,89.60
2017-11-16T12:56:09.056Z,89.36
2017-11-16T12:58:38.080Z,88.94
2017-11-16T13:01:06.318Z,88.72
2017-11-16T13:03:34.563Z,89.00
2017-11-16T13:06:02.802Z,89.00
2017-11-16T13:08:31.054Z,88.93
2017-11-16T13:11:00.055Z,89.08
2017-11-16T13:13:29.072Z,88.46
2017-11-16T13:15:57.315Z,89.09
2017-11-16T13:18:26.331Z,88.38
2017-11-16T13:20:54.579Z,87.80
2017-11-16T13:23:23.590Z,88.12
2017-11-16T13:25:51.844Z,88.25
2017-11-16T13:28:20.090Z,88.42
2017-11-16T13:30:48.340Z,88.03
2017-11-16T13:33:16.579Z,87.59
2017-11-16T13:35:45.583Z,87.28
2017-11-16T13:38:13.832Z,86.92
2017-11-16T13:40:42.081Z,87.26
2017-11-16T13:43:10.332Z,87.02
2017-11-16T13:45:38.570Z,86.82
2017-11-16T13:48:07.602Z,86.93
2017-11-16T13:50:35.855Z,87.15
2017-11-16T13:53:04.855Z,87.76
2017-11-16T13:55:33.109Z,87.52
2017-11-16T13:58:02.111Z,87.62
2017-11-16T14:00:31.127Z,88.09
2017-11-16T14:02:59.372Z,88.15
2017-11-16T14:05:28.386Z,88.41
2017-11-16T14:07:56.639Z,87.94
2017-11-16T14:10:25.655Z,88.40
2017-11-16T14:12:53.915Z,88.63
2017-11-16T14:15:22.921Z,88.02
2017-11-16T14:17:51.165Z,87.70
2017-11-16T14:20:19.422Z,88.51
2017-11-16T14:22:47.672Z,88.29
2017-11-16T14:25:15.916Z,88.66
2017-11-16T14:27:44.167Z,88.67
2017-11-16T14:30:13.193Z,88.95
2017-11-16T14:32:41.442Z,88.37
2017-11-16T14:35:10.456Z,88.74
2017-11-16T14:37:38.703Z,88.92
2017-11-16T14:40:06.950Z,88.98
2017-11-16T14:42:35.201Z,88.94
2017-11-16T14:45:03.447Z,88.78
2017-11-16T14:47:32.470Z,88.53
2017-11-16T14:50:00.718Z,88.95
2017-11-16T14:52:29.722Z,88.76
2017-11-16T14:54:57.958Z,88.84
2017-11-16T14:57:26.232Z,89.05
2017-11-16T14:59:54.476Z,89.22
2017-11-16T15:02:22.731Z,89.44
2017-11-16T15:04:50.976Z,89.60
2017-11-16T15:07:19.985Z,89.66
2017-11-16T15:09:48.996Z,89.65
2017-11-16T15:12:17.248Z,89.99
2017-11-16T15:14:46.259Z,89.76
2017-11-16T15:17:14.498Z,89.82
2017-11-16T15:19:43.518Z,90.12
2017-11-16T15:22:11.766Z,90.10
2017-11-16T15:24:40.010Z,90.01
2017-11-16T15:27:08.259Z,90.01
2017-11-16T15:29:36.518Z,90.17
2017-11-16T15:32:04.762Z,89.91
2017-11-16T15:34:33.011Z,89.84
2017-11-16T15:37:01.267Z,90.02
2017-11-16T15:39:29.511Z,89.82
2017-11-16T15:41:58.527Z,89.92
2017-11-16T15:44:26.771Z,89.86
2017-11-16T15:46:55.780Z,89.87
2017-11-16T15:49:24.037Z,89.64
2017-11-16T15:51:53.047Z,89.50
2017-11-16T15:54:21.290Z,89.69
2017-11-16T15:56:49.567Z,89.71
2017-11-16T15:59:17.799Z,89.92
2017-11-16T16:01:46.599Z,89.87
2017-11-16T16:04:14.856Z,90.23
2017-11-16T16:06:43.094Z,90.28
2017-11-16T16:09:12.108Z,89.74
2017-11-16T16:11:40.367Z,89.55
2017-11-16T16:14:09.386Z,89.58
2017-11-16T16:16:37.628Z,89.49
2017-11-16T16:19:06.668Z,89.52
2017-11-16T16:21:34.913Z,89.25
2017-11-16T16:24:03.948Z,89.10
2017-11-16T16:26:32.186Z,89.18
2017-11-16T16:29:00.428Z,89.08
2017-11-16T16:31:28.676Z,88.58
2017-11-16T16:33:56.923Z,88.42
2017-11-16T16:36:25.168Z,88.38
2017-11-16T16:38:54.172Z,88.02
2017-11-16T16:41:23.180Z,88.22
2017-11-16T16:43:51.423Z,87.63
2017-11-16T16:46:19.663Z,87.76
2017-11-16T16:48:47.903Z,87.55
2017-11-16T16:51:16.158Z,87.51
2017-11-16T16:53:45.173Z,87.44
2017-11-16T16:56:13.411Z,87.17
2017-11-16T16:58:41.648Z,87.22
2017-11-16T17:01:09.883Z,87.67
2017-11-16T17:03:38.905Z,87.28
2017-11-16T17:06:07.133Z,87.34
2017-11-16T17:08:35.375Z,87.46
2017-11-16T17:11:04.395Z,87.23
2017-11-16T17:13:32.624Z,86.36
2017-11-16T17:16:00.872Z,86.21
2017-11-16T17:18:29.882Z,86.05
2017-11-16T17:20:58.130Z,86.49
2017-11-16T17:23:27.151Z,86.66
2017-11-16T17:25:55.394Z,86.74
2017-11-16T17:28:24.402Z,86.61
2017-11-16T17:30:52.654Z,86.43
2017-11-16T17:33:20.893Z,86.32
2017-11-16T17:35:49.136Z,86.23
2017-11-16T17:38:17.380Z,86.22
2017-11-16T17:40:45.624Z,85.92
2017-11-16T17:43:13.861Z,86.00
2017-11-16T17:45:42.125Z,85.77
2017-11-16T17:48:11.131Z,86.00
2017-11-16T17:50:39.366Z,86.06
2017-11-16T17:53:07.620Z,86.40
2017-11-16T17:55:35.850Z,86.51
2017-11-16T17:58:04.122Z,86.33
2017-11-16T18:00:32.363Z,85.97
2017-11-16T18:03:00.603Z,85.65
2017-11-16T18:05:28.844Z,85.12
2017-11-16T18:07:57.853Z,85.64
2017-11-16T18:10:26.094Z,85.68
2017-11-16T18:12:55.111Z,85.60
2017-11-16T18:15:23.356Z,85.20
2017-11-16T18:17:51.607Z,85.05
2017-11-16T18:20:19.856Z,85.64
2017-11-16T18:22:48.087Z,85.67
2017-11-16T18:25:17.107Z,85.35
2017-11-16T18:27:45.343Z,85.52
2017-11-16T18:30:13.595Z,84.99
2017-11-16T18:32:41.840Z,85.25
2017-11-16T18:35:10.090Z,85.45
2017-11-16T18:37:39.090Z,85.25
2017-11-16T18:40:08.108Z,85.23
2017-11-16T18:42:36.356Z,85.06
2017-11-16T18:45:05.367Z,85.57
2017-11-16T18:47:33.615Z,85.67
2017-11-16T18:50:02.657Z,85.82
2017-11-16T18:52:30.898Z,85.56
2017-11-16T18:54:59.135Z,85.58
2017-11-16T18:57:27.378Z,85.82
2017-11-16T18:59:55.612Z,86.41
2017-11-16T19:02:24.622Z,86.60
2017-11-16T19:04:52.873Z,86.93
2017-11-16T19:07:21.118Z,87.38
2017-11-16T19:09:49.368Z,86.80
2017-11-16T19:12:17.619Z,86.88
2017-11-16T19:14:46.629Z,86.89
2017-11-16T19:17:14.891Z,87.14
2017-11-16T19:19:43.889Z,87.14
2017-11-16T19:22:12.131Z,86.84
2017-11-16T19:24:41.141Z,87.00
2017-11-16T19:27:10.151Z,87.00
2017-11-16T19:29:38.400Z,87.32
2017-11-16T19:32:07.414Z,87.46
2017-11-16T19:34:35.669Z,87.56
2017-11-16T19:37:04.684Z,87.61
2017-11-16T19:39:32.925Z,87.69
2017-11-16T19:42:01.164Z,87.75
2017-11-16T19:44:29.414Z,87.76
2017-11-16T19:46:57.660Z,88.00
2017-11-16T19:49:26.673Z,88.07
2017-11-16T19:51:54.927Z,88.60
2017-11-16T19:54:23.944Z,88.46
2017-11-16T19:56:52.203Z,88.54
2017-11-16T19:59:21.214Z,89.09
2017-11-16T20:01:49.470Z,89.51
2017-11-16T20:04:18.484Z,89.77
2017-11-16T20:06:46.740Z,89.96
2017-11-16T20:09:15.741Z,89.81
2017-11-16T20:11:43.999Z,89.74
2017-11-16T20:14:13.018Z,89.86
2017-11-16T20:16:41.287Z,90.19
2017-11-16T20:19:09.551Z,90.04
2017-11-16T20:21:38.560Z,90.35
2017-11-16T20:24:06.950Z,90.56
2017-11-16T20:26:35.243Z,90.77
2017-11-16T20:29:03.529Z,91.02
2017-11-16T20:31:31.805Z,91.10
2017-11-16T20:34:00.077Z,91.41
2017-11-16T20:36:28.336Z,91.23
2017-11-16T20:38:57.453Z,91.38
2017-11-16T20:41:30.627Z,91.47
2017-11-16T20:47:18.293Z,91.69
2017-11-16T20:52:52.138Z,91.79
2017-11-16T20:55:20.375Z,91.72
2017-11-16T20:57:48.619Z,91.74
2017-11-16T21:00:17.639Z,91.90
2017-11-16T21:02:45.883Z,91.82
2017-11-16T21:05:14.898Z,91.92
2017-11-16T21:07:43.147Z,91.76
2017-11-16T21:10:12.164Z,91.62
2017-11-16T21:12:40.460Z,91.83
2017-11-16T21:15:08.720Z,91.96
2017-11-16T21:17:37.042Z,91.98
2017-11-16T21:20:05.307Z,92.07
2017-11-16T21:22:33.560Z,92.08
2017-11-16T21:25:01.816Z,91.89
2017-11-16T21:27:30.089Z,92.05
2017-11-16T21:29:58.372Z,92.00
2017-11-16T21:32:26.674Z,92.07
2017-11-16T21:34:54.911Z,92.25
2017-11-16T21:37:23.935Z,92.43
2017-11-16T21:39:52.195Z,92.58
2017-11-16T21:42:20.518Z,92.57
2017-11-16T21:44:48.778Z,92.46
2017-11-16T21:47:17.031Z,92.53
2017-11-16T21:49:45.273Z,92.42
2017-11-16T21:52:14.304Z,92.43
2017-11-16T21:54:42.556Z,92.42
2017-11-16T21:57:11.570Z,92.36
2017-11-16T21:59:39.810Z,92.37
2017-11-16T22:02:08.823Z,92.59
2017-11-16T22:04:37.075Z,92.76
2017-11-16T22:07:06.090Z,92.64
2017-11-16T22:09:34.342Z,92.69
2017-11-16T22:12:03.360Z,92.80
2017-11-16T22:14:31.615Z,92.63
2017-11-16T22:17:00.642Z,92.71
2017-11-16T22:19:28.893Z,92.75
2017-11-16T22:21:57.153Z,92.85
2017-11-16T22:24:25.394Z,92.93
2017-11-16T22:26:53.650Z,92.77
2017-11-16T22:29:21.906Z,92.55
2017-11-16T22:31:50.155Z,92.50
2017-11-16T22:34:19.173Z,92.51
2017-11-16T22:36:47.447Z,92.51
2017-11-16T22:39:15.695Z,92.72
2017-11-16T22:41:44.706Z,92.80
2017-11-16T22:44:12.964Z,92.66
2017-11-16T22:46:41.980Z,92.73
2017-11-16T22:49:11.000Z,92.84
2017-11-16T22:51:39.239Z,92.92
2017-11-16T22:54:08.268Z,92.90
2017-11-16T22:56:36.516Z,92.84
2017-11-16T22:59:05.525Z,92.77
2017-11-16T23:01:33.785Z,92.75
2017-11-16T23:04:02.041Z,92.77
2017-11-16T23:06:31.050Z,92.89
2017-11-16T23:08:59.387Z,92.97
2017-11-16T23:11:27.783Z,93.22
2017-11-16T23:13:56.069Z,93.23
2017-11-16T23:16:25.111Z,93.15
2017-11-16T23:18:53.388Z,93.18
2017-11-16T23:21:21.645Z,93.25
2017-11-16T23:23:49.911Z,93.16
2017-11-16T23:26:18.184Z,93.37
2017-11-16T23:28:47.217Z,93.57
2017-11-16T23:31:15.491Z,93.59
2017-11-16T23:33:43.773Z,93.59
2017-11-16T23:36:12.040Z,93.61
2017-11-16T23:38:40.309Z,93.64
2017-11-16T23:41:08.589Z,93.63
2017-11-16T23:43:36.847Z,93.67
2017-11-16T23:46:05.113Z,93.73
2017-11-16T23:48:33.374Z,93.73
2017-11-16T23:51:02.432Z,93.74
2017-11-16T23:53:31.457Z,93.71
2017-11-16T23:56:00.494Z,93.72
2017-11-16T23:58:28.768Z,93.69
